Time;durP1;ratioP1;P1;durP2;ratioP2;P2;SDS_P1;SDS_P2;PMS_P1;PMS_P2;Temp;Humidity;BMP_temperature;BMP_pressure;BME280_temperature;BME280_humidity;BME280_pressure;Samples;Min_cycle;Max_cycle;Signal;HPM_P1;HPM_P2
2022/04/11 00:02:18;;;;;;;11.10;6.40;;;205.60;2252.80;;;;;;4827287;29;20034;-83
2022/04/11 00:04:44;;;;;;;7.32;5.40;;;205.60;2252.80;;;;;;4827473;29;20108;-84
2022/04/11 00:07:12;;;;;;;8.77;6.07;;;205.60;2252.80;;;;;;4827070;29;20030;-83
2022/04/11 00:09:42;;;;;;;7.75;5.80;;;205.50;2252.80;;;;;;4827704;29;20026;-84
2022/04/11 00:12:09;;;;;;;10.65;6.75;;;205.60;2252.80;;;;;;4827661;29;20069;-83
2022/04/11 00:14:36;;;;;;;10.68;6.72;;;205.60;2252.80;;;;;;4826960;29;20034;-82
2022/04/11 00:17:03;;;;;;;13.80;7.50;;;205.50;2252.80;;;;;;4817593;29;20515;-81
2022/04/11 00:19:32;;;;;;;16.55;9.32;;;205.50;2252.80;;;;;;4809351;29;20476;-82
2022/04/11 00:21:58;;;;;;;17.05;10.27;;;205.60;2252.80;;;;;;4808698;29;20050;-82
2022/04/11 00:24:24;;;;;;;12.90;7.68;;;205.50;2252.80;;;;;;4809045;29;20126;-81
2022/04/11 00:26:49;;;;;;;11.93;6.88;;;205.50;2252.80;;;;;;4808962;29;20030;-83
2022/04/11 00:29:15;;;;;;;9.63;6.55;;;205.50;2252.80;;;;;;4808854;29;20030;-79
2022/04/11 00:31:41;;;;;;;6.80;5.32;;;205.40;2252.80;;;;;;4808724;29;20034;-81
2022/04/11 00:34:07;;;;;;;11.38;6.10;;;205.40;2252.80;;;;;;4809150;29;20496;-84
2022/04/11 00:36:33;;;;;;;8.48;6.15;;;205.40;2252.80;;;;;;4808818;29;20027;-81
2022/04/11 00:38:59;;;;;;;12.20;6.40;;;205.40;2252.80;;;;;;4824823;29;20035;-82
2022/04/11 00:41:24;;;;;;;11.70;6.95;;;205.40;2252.80;;;;;;4824841;29;20026;-81
2022/04/11 00:43:50;;;;;;;8.30;5.55;;;205.40;2252.80;;;;;;4808200;29;20041;-80
2022/04/11 00:46:16;;;;;;;8.52;5.97;;;205.40;2252.80;;;;;;4808200;29;20054;-80
2022/04/11 00:48:42;;;;;;;9.07;5.38;;;205.30;2252.80;;;;;;4808364;29;20037;-79
2022/04/11 00:51:22;;;;;;;7.72;5.85;;;205.30;2252.80;;;;;;4808620;29;20403;-81
2022/04/11 00:53:50;;;;;;;8.65;5.43;;;205.30;2252.80;;;;;;4825206;29;20074;-79
2022/04/11 00:56:17;;;;;;;8.80;5.95;;;205.30;2252.80;;;;;;4808296;29;20495;-81
2022/04/11 00:58:43;;;;;;;12.25;7.95;;;205.30;2252.80;;;;;;4808553;29;20057;-83
2022/04/11 01:01:09;;;;;;;12.10;7.00;;;205.30;2252.80;;;;;;4808532;29;20030;-80
2022/04/11 01:03:36;;;;;;;10.88;7.38;;;205.30;2252.80;;;;;;4807994;29;20050;-79
2022/04/11 01:06:03;;;;;;;11.30;6.47;;;205.30;2252.80;;;;;;4808352;29;20026;-80
2022/04/11 01:08:29;;;;;;;11.35;6.85;;;205.30;2252.80;;;;;;4808460;29;20030;-80
2022/04/11 01:10:55;;;;;;;9.57;6.05;;;205.30;2252.80;;;;;;4808169;29;20026;-81
2022/04/11 01:13:21;;;;;;;10.80;6.50;;;205.30;2252.80;;;;;;4808592;29;20030;-81
2022/04/11 01:16:01;;;;;;;9.75;5.55;;;205.20;2252.80;;;;;;4832375;29;20026;-83
2022/04/11 01:18:27;;;;;;;8.63;5.82;;;205.20;2252.80;;;;;;4814277;29;20042;-81
2022/04/11 01:20:53;;;;;;;9.80;6.75;;;205.20;2252.80;;;;;;4809225;29;20099;-82
2022/04/11 01:23:20;;;;;;;9.50;6.53;;;205.10;2252.80;;;;;;4808901;29;20499;-81
2022/04/11 01:25:50;;;;;;;8.52;5.95;;;205.10;2252.80;;;;;;4810325;29;20031;-83
2022/04/11 01:28:17;;;;;;;11.80;6.45;;;205.10;2252.80;;;;;;4812306;29;20030;-80
2022/04/11 01:30:42;;;;;;;8.85;5.97;;;205.10;2252.80;;;;;;4811782;29;20034;-82
2022/04/11 01:33:16;;;;;;;8.88;6.03;;;205.10;2252.80;;;;;;4827973;29;20045;-81
2022/04/11 01:35:42;;;;;;;9.88;6.20;;;205.00;2252.80;;;;;;4815283;29;20035;-80
2022/04/11 01:38:08;;;;;;;10.82;5.90;;;205.00;2252.80;;;;;;4815947;29;20037;-80
2022/04/11 01:40:34;;;;;;;8.18;5.55;;;204.90;2252.80;;;;;;4811915;29;20460;-82
2022/04/11 01:42:59;;;;;;;6.63;5.80;;;204.80;2252.80;;;;;;4828006;29;20110;-81
2022/04/11 01:45:25;;;;;;;9.68;6.30;;;204.80;2252.80;;;;;;4811268;29;20529;-80
2022/04/11 01:47:51;;;;;;;8.15;5.65;;;204.90;2252.80;;;;;;4811500;29;20026;-82
2022/04/11 01:50:17;;;;;;;8.50;5.70;;;204.90;2252.80;;;;;;4811691;29;20034;-83
2022/04/11 01:52:42;;;;;;;7.13;5.70;;;204.90;2252.80;;;;;;4811340;29;20055;-82
2022/04/11 01:55:08;;;;;;;9.50;6.68;;;205.00;2252.80;;;;;;4811586;29;20118;-82
2022/04/11 01:57:34;;;;;;;10.85;6.72;;;204.90;2252.80;;;;;;4811596;29;20504;-82
2022/04/11 02:00:00;;;;;;;10.63;5.93;;;204.90;2252.80;;;;;;4811195;29;20070;-78
2022/04/11 02:02:26;;;;;;;7.95;5.93;;;204.90;2252.80;;;;;;4811393;29;20476;-79
2022/04/11 02:04:52;;;;;;;11.90;7.60;;;204.90;2252.80;;;;;;4811548;29;20035;-80
2022/04/11 02:07:18;;;;;;;9.10;6.47;;;204.90;2252.80;;;;;;4811283;29;20042;-80
2022/04/11 02:09:44;;;;;;;9.98;6.88;;;204.90;2252.80;;;;;;4811345;29;20042;-79
2022/04/11 02:12:10;;;;;;;9.70;5.78;;;204.90;2252.80;;;;;;4811412;29;20548;-79
2022/04/11 02:14:35;;;;;;;19.70;11.25;;;204.90;2252.80;;;;;;4810980;29;20034;-81
2022/04/11 02:17:01;;;;;;;16.70;8.60;;;204.90;2252.80;;;;;;4811329;29;20499;-81
2022/04/11 02:19:27;;;;;;;21.27;13.50;;;204.90;2252.80;;;;;;4811236;29;20027;-81
2022/04/11 02:21:53;;;;;;;12.50;8.63;;;204.80;2252.80;;;;;;4810939;29;20064;-80
2022/04/11 02:24:18;;;;;;;8.93;6.60;;;204.90;2252.80;;;;;;4811040;29;20042;-80
2022/04/11 02:26:44;;;;;;;8.35;5.80;;;204.80;2252.80;;;;;;4810883;29;20070;-81
2022/04/11 02:29:10;;;;;;;11.77;6.22;;;180.10;2252.80;;;;;;4811014;29;20031;-80
2022/04/11 02:31:36;;;;;;;7.22;5.65;;;180.10;2252.80;;;;;;4810898;29;20090;-82
2022/04/11 02:34:01;;;;;;;7.45;5.30;;;180.10;2252.80;;;;;;4810913;29;20038;-81
2022/04/11 02:36:27;;;;;;;9.40;6.10;;;180.10;2252.80;;;;;;4810746;29;20062;-81
2022/04/11 02:38:53;;;;;;;8.57;5.95;;;180.10;2252.80;;;;;;4810897;29;20026;-80
2022/04/11 02:41:19;;;;;;;7.88;5.47;;;180.10;2252.80;;;;;;4810643;29;20137;-81
2022/04/11 02:43:44;;;;;;;11.48;6.18;;;180.00;2252.80;;;;;;4810718;29;20061;-82
2022/04/11 02:46:10;;;;;;;8.98;5.63;;;180.00;2252.80;;;;;;4810527;29;20057;-82
2022/04/11 02:48:37;;;;;;;8.02;5.38;;;179.90;2252.80;;;;;;4810542;29;20031;-80
2022/04/11 02:51:02;;;;;;;8.82;5.90;;;179.90;2252.80;;;;;;4810725;29;20353;-81
2022/04/11 02:53:28;;;;;;;10.20;6.63;;;179.90;2252.80;;;;;;4810630;29;20044;-82
2022/04/11 02:55:54;;;;;;;11.75;5.93;;;179.90;2252.80;;;;;;4810424;29;20046;-82
2022/04/11 02:58:19;;;;;;;13.15;6.20;;;179.90;2252.80;;;;;;4810743;29;20464;-81
2022/04/11 03:00:45;;;;;;;10.15;7.43;;;179.90;2252.80;;;;;;4810603;29;20087;-80
2022/04/11 03:03:11;;;;;;;11.40;6.75;;;179.90;2252.80;;;;;;4810406;29;20046;-81
2022/04/11 03:05:38;;;;;;;11.25;6.88;;;179.90;2252.80;;;;;;4810406;29;20031;-83
2022/04/11 03:08:04;;;;;;;11.50;6.40;;;179.80;2252.80;;;;;;4810510;29;20091;-79
2022/04/11 03:10:29;;;;;;;8.43;5.90;;;179.80;2252.80;;;;;;4810094;29;20125;-80
2022/04/11 03:12:55;;;;;;;10.07;6.13;;;179.70;2252.80;;;;;;4810530;29;20038;-81
2022/04/11 03:15:21;;;;;;;11.10;7.35;;;179.80;2252.80;;;;;;4810426;29;20026;-82
2022/04/11 03:17:47;;;;;;;11.30;6.80;;;179.80;2252.80;;;;;;4810180;29;20065;-82
2022/04/11 03:20:12;;;;;;;11.25;7.75;;;179.80;2252.80;;;;;;4810071;29;20460;-81
2022/04/11 03:22:38;;;;;;;9.48;6.30;;;179.80;2252.80;;;;;;4810046;29;20042;-80
2022/04/11 03:25:05;;;;;;;9.23;6.55;;;179.80;2252.80;;;;;;4810099;29;20039;-82
2022/04/11 03:27:31;;;;;;;12.63;6.57;;;179.70;2252.80;;;;;;4809838;29;20065;-81
2022/04/11 03:29:57;;;;;;;7.50;5.85;;;179.70;2252.80;;;;;;4809901;29;20072;-82
2022/04/11 03:32:22;;;;;;;11.05;6.50;;;179.60;2252.80;;;;;;4810099;29;20065;-81
2022/04/11 03:34:51;;;;;;;10.60;6.43;;;179.50;2252.80;;;;;;4810218;29;20364;-81
2022/04/11 03:37:17;;;;;;;10.48;6.43;;;179.50;2252.80;;;;;;4809741;29;20429;-81
2022/04/11 03:39:43;;;;;;;10.27;6.38;;;179.40;2252.80;;;;;;4826461;29;20163;-79
2022/04/11 03:42:08;;;;;;;8.32;5.88;;;179.40;2252.80;;;;;;4809811;29;20480;-83
2022/04/11 03:44:35;;;;;;;14.40;7.55;;;179.30;2252.80;;;;;;4809917;29;20041;-82
2022/04/11 03:47:01;;;;;;;10.27;6.43;;;179.20;2252.80;;;;;;4825846;29;20061;-79
2022/04/11 03:49:27;;;;;;;12.45;7.47;;;179.30;2252.80;;;;;;4809534;29;20144;-81
2022/04/11 03:51:53;;;;;;;14.45;7.72;;;179.30;2252.80;;;;;;4809590;29;20057;-82
2022/04/11 03:54:19;;;;;;;13.48;7.25;;;179.30;2252.80;;;;;;4809634;29;20103;-83
2022/04/11 03:56:44;;;;;;;10.43;7.25;;;179.30;2252.80;;;;;;4809623;29;20038;-83
2022/04/11 03:59:10;;;;;;;9.80;6.95;;;179.20;2252.80;;;;;;4809279;29;20037;-82
2022/04/11 04:01:36;;;;;;;9.23;5.70;;;179.50;2252.80;;;;;;4809506;29;20041;-81
2022/04/11 04:04:03;;;;;;;10.93;6.65;;;154.40;2252.80;;;;;;4809495;29;20042;-80
2022/04/11 04:06:29;;;;;;;7.78;6.18;;;154.40;2252.80;;;;;;4809192;29;20488;-81
2022/04/11 04:08:55;;;;;;;8.90;6.25;;;154.40;2252.80;;;;;;4825816;29;20038;-82
2022/04/11 04:11:21;;;;;;;12.57;7.00;;;154.40;2252.80;;;;;;4809421;29;20034;-81
2022/04/11 04:13:46;;;;;;;23.55;14.50;;;154.40;2252.80;;;;;;4825267;29;20090;-81
2022/04/11 04:16:12;;;;;;;40.58;29.90;;;154.40;2252.80;;;;;;4809525;29;20381;-82
2022/04/11 04:18:38;;;;;;;16.77;13.57;;;154.30;2252.80;;;;;;4809408;29;20050;-79
2022/04/11 04:21:04;;;;;;;14.23;10.30;;;154.30;2252.80;;;;;;4809132;29;20413;-83
2022/04/11 04:23:29;;;;;;;14.45;8.75;;;154.40;2252.80;;;;;;4816306;29;20034;-80
2022/04/11 04:25:56;;;;;;;17.08;11.18;;;154.40;2252.80;;;;;;4827293;29;20057;-81
2022/04/11 04:28:22;;;;;;;17.45;12.43;;;154.30;2252.80;;;;;;4814071;29;20034;-80
2022/04/11 04:30:48;;;;;;;16.90;9.95;;;154.20;2252.80;;;;;;4810173;29;20038;-82
2022/04/11 04:33:13;;;;;;;12.05;9.45;;;154.20;2252.80;;;;;;4809047;29;20646;-83
2022/04/11 04:35:39;;;;;;;11.75;8.25;;;154.20;2252.80;;;;;;4809493;29;20030;-82
2022/04/11 04:38:05;;;;;;;24.48;13.63;;;154.20;2252.80;;;;;;4809167;29;20026;-83
2022/04/11 04:40:31;;;;;;;21.98;10.75;;;154.30;2252.80;;;;;;4808915;29;20031;-82
2022/04/11 04:42:57;;;;;;;27.67;16.65;;;154.30;2252.80;;;;;;4808943;29;20098;-83
2022/04/11 04:45:25;;;;;;;20.95;10.57;;;154.30;2252.80;;;;;;4808875;29;20057;-83
2022/04/11 04:47:51;;;;;;;11.82;7.38;;;154.30;2252.80;;;;;;4810771;29;20091;-80
2022/04/11 04:50:17;;;;;;;36.38;20.45;;;154.30;2252.80;;;;;;4815301;29;20031;-82
2022/04/11 04:52:43;;;;;;;27.48;14.65;;;154.30;2252.80;;;;;;4812543;29;20424;-82
2022/04/11 04:55:09;;;;;;;37.80;21.25;;;154.30;2252.80;;;;;;4808527;29;20098;-82
2022/04/11 04:57:35;;;;;;;39.45;23.40;;;154.30;2252.80;;;;;;4808733;29;20070;-83
2022/04/11 05:00:01;;;;;;;20.83;12.50;;;154.30;2252.80;;;;;;4824188;29;20027;-83
2022/04/11 05:02:34;;;;;;;34.97;21.15;;;154.30;2252.80;;;;;;4808509;29;20034;-82
2022/04/11 05:05:05;;;;;;;24.88;15.32;;;154.30;2252.80;;;;;;4808715;29;20031;-84
2022/04/11 05:07:31;;;;;;;21.30;15.23;;;154.30;2252.80;;;;;;4808587;29;20038;-78
2022/04/11 05:09:57;;;;;;;18.48;9.85;;;154.20;2252.80;;;;;;4824396;29;20030;-79
2022/04/11 05:12:22;;;;;;;21.45;13.32;;;154.20;2252.80;;;;;;4808605;29;20031;-80
2022/04/11 05:14:48;;;;;;;38.10;21.85;;;154.10;2252.80;;;;;;4808383;29;20045;-80
2022/04/11 05:17:14;;;;;;;47.53;26.33;;;154.20;2252.80;;;;;;4808621;29;20038;-80
2022/04/11 05:19:40;;;;;;;36.40;21.63;;;154.20;2252.80;;;;;;4824618;29;20031;-80
2022/04/11 05:22:06;;;;;;;29.88;18.40;;;154.30;2252.80;;;;;;4808478;29;20027;-80
2022/04/11 05:24:32;;;;;;;40.35;25.13;;;154.30;2252.80;;;;;;4808202;29;20484;-80
2022/04/11 05:26:58;;;;;;;26.83;15.85;;;154.30;2252.80;;;;;;4808603;29;20387;-80
2022/04/11 05:29:24;;;;;;;48.25;29.83;;;154.40;2252.80;;;;;;4824553;29;20027;-80
2022/04/11 05:31:49;;;;;;;17.60;12.25;;;154.40;2252.80;;;;;;4808252;29;20058;-81
2022/04/11 05:34:15;;;;;;;13.85;8.45;;;154.40;2252.80;;;;;;4808386;29;20129;-82
2022/04/11 05:36:41;;;;;;;21.80;14.68;;;154.50;2252.80;;;;;;4807997;29;20037;-79
2022/04/11 05:39:07;;;;;;;18.63;12.95;;;179.20;2252.80;;;;;;4808177;29;20030;-81
2022/04/11 05:41:32;;;;;;;15.75;9.38;;;179.30;2252.80;;;;;;4808168;29;20094;-81
2022/04/11 05:43:58;;;;;;;22.40;12.20;;;179.40;2252.80;;;;;;4807836;29;20133;-83
2022/04/11 05:46:24;;;;;;;10.05;6.40;;;179.40;2252.80;;;;;;4808022;29;20093;-82
2022/04/11 05:48:49;;;;;;;13.05;8.13;;;179.50;2252.80;;;;;;4808219;29;20122;-81
2022/04/11 05:51:15;;;;;;;8.88;6.63;;;179.60;2252.80;;;;;;4823977;29;20031;-80
2022/04/11 05:53:41;;;;;;;16.17;9.38;;;179.60;2252.80;;;;;;4808010;29;20500;-79
2022/04/11 05:56:08;;;;;;;46.50;26.02;;;179.60;2252.80;;;;;;4808225;29;20053;-78
2022/04/11 05:58:33;;;;;;;10.68;6.18;;;179.70;2252.80;;;;;;4807926;29;20034;-79
2022/04/11 06:00:59;;;;;;;10.40;6.70;;;179.70;2252.80;;;;;;4808102;29;20495;-81
2022/04/11 06:03:25;;;;;;;9.75;6.47;;;179.80;2252.80;;;;;;4807917;29;20045;-79
2022/04/11 06:05:51;;;;;;;11.23;6.32;;;179.80;2252.80;;;;;;4807930;29;20030;-79
2022/04/11 06:08:17;;;;;;;15.38;8.10;;;179.90;2252.80;;;;;;4807928;29;20026;-79
2022/04/11 06:10:44;;;;;;;10.50;4.97;;;180.00;2252.80;;;;;;4808163;29;20035;-78
2022/04/11 06:13:10;;;;;;;9.13;5.32;;;180.00;2252.80;;;;;;4811169;29;20037;-81
2022/04/11 06:15:35;;;;;;;12.98;7.95;;;180.00;2252.80;;;;;;4811153;29;20384;-79
2022/04/11 06:18:01;;;;;;;12.00;8.70;;;180.00;2252.80;;;;;;4810776;29;20460;-81
2022/04/11 06:20:27;;;;;;;9.07;4.82;;;180.10;2252.80;;;;;;4810662;29;20494;-80
2022/04/11 06:22:53;;;;;;;7.63;5.47;;;179.90;2252.80;;;;;;4810880;29;20065;-80
2022/04/11 06:25:18;;;;;;;11.45;7.95;;;180.10;2252.80;;;;;;4810432;29;20036;-79
2022/04/11 06:27:44;;;;;;;9.85;6.47;;;180.10;2252.80;;;;;;4810998;29;20441;-78
2022/04/11 06:30:10;;;;;;;7.90;5.13;;;180.10;2252.80;;;;;;4810857;29;20388;-79
2022/04/11 06:32:36;;;;;;;9.68;6.20;;;180.10;2252.80;;;;;;4827096;29;20039;-78
2022/04/11 06:35:03;;;;;;;10.45;5.47;;;180.10;2252.80;;;;;;4810891;29;20392;-80
2022/04/11 06:37:29;;;;;;;9.10;5.68;;;204.80;2252.80;;;;;;4810683;29;20034;-79
2022/04/11 06:39:55;;;;;;;11.65;6.78;;;205.10;2252.80;;;;;;4810453;29;20548;-79
2022/04/11 06:43:07;;;;;;;13.13;8.07;;;204.90;2252.80;;;;;;4810653;29;20034;-78
2022/04/11 06:45:33;;;;;;;11.43;6.72;;;205.00;2252.80;;;;;;4810152;29;20050;-81
2022/04/11 06:47:58;;;;;;;8.88;6.53;;;205.00;2252.80;;;;;;4810392;29;20034;-80
2022/04/11 06:50:24;;;;;;;15.35;9.00;;;205.00;2252.80;;;;;;4810539;29;20034;-79
2022/04/11 06:52:50;;;;;;;9.43;6.13;;;205.20;2252.80;;;;;;4810272;29;20129;-78
2022/04/11 06:55:15;;;;;;;7.03;4.70;;;205.20;2252.80;;;;;;4810614;29;20524;-80
2022/04/11 06:57:41;;;;;;;8.02;5.18;;;205.30;2252.80;;;;;;4810506;29;20033;-79
2022/04/11 07:00:08;;;;;;;9.30;4.72;;;205.30;2252.80;;;;;;4810147;29;20498;-81
2022/04/11 07:02:33;;;;;;;8.13;4.60;;;205.40;2252.80;;;;;;4810175;29;20031;-81
2022/04/11 07:04:59;;;;;;;7.93;5.05;;;205.50;2252.80;;;;;;4810264;29;20086;-80
2022/04/11 07:07:25;;;;;;;7.40;4.65;;;205.60;2252.80;;;;;;4810054;29;20041;-82
2022/04/11 07:09:50;;;;;;;9.35;5.75;;;205.60;2252.80;;;;;;4826557;29;20035;-80
2022/04/11 07:12:16;;;;;;;12.27;6.80;;;230.40;2252.80;;;;;;4810190;29;20034;-81
2022/04/11 07:14:42;;;;;;;10.30;5.05;;;230.40;2252.80;;;;;;4809908;29;20064;-79
2022/04/11 07:17:07;;;;;;;7.22;4.32;;;230.50;2252.80;;;;;;4810079;29;20086;-81
2022/04/11 07:19:33;;;;;;;10.77;4.47;;;230.50;2227.20;;;;;;4810026;29;20144;-80
2022/04/11 07:21:59;;;;;;;8.00;5.18;;;230.50;2252.80;;;;;;4825656;29;20034;-80
2022/04/11 07:24:25;;;;;;;9.55;5.07;;;230.60;2252.80;;;;;;4809690;29;20476;-81
2022/04/11 07:26:50;;;;;;;7.78;3.35;;;230.70;2201.60;;;;;;4809994;29;20031;-82
2022/04/11 07:29:16;;;;;;;8.70;4.63;;;230.70;2176.00;;;;;;4810713;29;20034;-81
2022/04/11 07:31:42;;;;;;;7.20;4.88;;;230.70;2176.00;;;;;;4833785;29;20026;-81
2022/04/11 07:34:08;;;;;;;9.70;5.03;;;230.80;2176.00;;;;;;4816833;29;20038;-82
2022/04/11 07:36:33;;;;;;;6.93;3.95;;;230.80;2124.80;;;;;;4810648;29;20027;-82
2022/04/11 07:38:59;;;;;;;6.60;3.60;;;230.90;2150.40;;;;;;4810447;29;20038;-80
2022/04/11 07:41:25;;;;;;;7.10;3.78;;;230.90;2150.40;;;;;;4810198;29;20490;-83
2022/04/11 07:43:56;;;;;;;6.30;3.58;;;231.00;2099.20;;;;;;4808365;29;20103;-83
2022/04/11 07:46:31;;;;;;;9.10;5.28;;;231.00;2099.20;;;;;;4818120;29;20061;-82
2022/04/11 07:48:56;;;;;;;7.40;4.00;;;231.20;2099.20;;;;;;4824836;29;20749;-85
2022/04/11 07:51:22;;;;;;;57.45;31.45;;;231.10;2099.20;;;;;;4825008;29;20117;-84
2022/04/11 07:53:48;;;;;;;27.67;13.50;;;231.30;2073.60;;;;;;4831237;29;20033;-83
2022/04/11 07:56:13;;;;;;;19.92;8.75;;;231.30;2048.00;;;;;;4842943;29;20037;-83
2022/04/11 07:58:39;;;;;;;21.60;11.85;;;256.10;2048.00;;;;;;4843074;29;20064;-84
2022/04/11 08:01:10;;;;;;;14.95;7.47;;;256.20;2073.60;;;;;;4844375;29;20037;-86
2022/04/11 08:03:47;;;;;;;6.38;4.18;;;256.40;2022.40;;;;;;4852235;29;20052;-84
2022/04/11 08:35:56;;;;;;;6.75;4.80;;;256.30;1996.80;;;;;;4842824;29;20068;-82
2022/04/11 08:38:21;;;;;;;8.15;5.00;;;256.20;2022.40;;;;;;4826485;29;20078;-81
2022/04/11 08:40:47;;;;;;;7.53;5.70;;;256.20;2022.40;;;;;;4826882;29;20416;-79
2022/04/11 08:43:14;;;;;;;7.53;5.03;;;256.50;2022.40;;;;;;4826358;29;20046;-82
2022/04/11 08:45:40;;;;;;;8.85;5.20;;;256.50;2073.60;;;;;;4826927;29;20042;-81
2022/04/11 08:48:06;;;;;;;11.02;6.72;;;256.50;2048.00;;;;;;4826348;29;20384;-81
2022/04/11 08:50:32;;;;;;;9.75;6.28;;;256.50;1996.80;;;;;;4843110;29;20034;-79
2022/04/11 08:52:57;;;;;;;9.93;5.00;;;256.40;1945.60;;;;;;4841738;29;20038;-80
2022/04/11 08:55:23;;;;;;;8.50;5.43;;;256.30;1945.60;;;;;;4826472;29;20034;-77
2022/04/11 08:57:50;;;;;;;5.90;4.47;;;256.30;1971.20;;;;;;4826514;29;20125;-80
2022/04/11 09:00:20;;;;;;;7.63;4.65;;;256.30;1971.20;;;;;;4826227;29;20038;-78
2022/04/11 09:02:47;;;;;;;21.98;13.73;;;256.30;1996.80;;;;;;4854970;29;20037;-81
2022/04/11 09:05:59;;;;;;;19.05;12.60;;;281.70;2022.40;;;;;;4844757;29;20038;-81
2022/04/11 09:26:19;;;;;;;11.43;5.43;;;256.70;2022.40;;;;;;4808387;29;20062;-80
2022/04/11 09:29:15;;;;;;;5.45;3.72;;;256.80;1996.80;;;;;;4810779;29;20046;-81
2022/04/11 09:31:45;;;;;;;9.52;5.35;;;256.80;1945.60;;;;;;4827573;29;20143;-79
2022/04/11 09:34:15;;;;;;;14.73;8.32;;;256.90;1920.00;;;;;;4844101;29;20451;-78
2022/04/11 09:36:51;;;;;;;10.35;6.90;;;256.90;1920.00;;;;;;4844274;29;20487;-80
2022/04/11 09:39:28;;;;;;;11.02;6.28;;;281.60;1920.00;;;;;;4844608;29;20530;-78
2022/04/11 09:41:54;;;;;;;20.55;13.23;;;256.90;1868.80;;;;;;4844586;29;20040;-81
2022/04/11 09:44:28;;;;;;;8.13;4.97;;;281.60;1945.60;;;;;;4861080;29;20697;-79
2022/04/11 09:51:10;;;;;;;7.47;5.30;;;281.60;1920.00;;;;;;4807027;29;20042;-79
2022/04/11 09:57:03;;;;;;;9.18;6.20;;;281.70;1945.60;;;;;;4806960;29;20075;-77
2022/04/11 09:59:29;;;;;;;12.93;7.43;;;282.30;1894.40;;;;;;4807131;29;20038;-76
2022/04/11 10:01:59;;;;;;;8.63;5.30;;;282.40;1894.40;;;;;;4817136;29;20719;-77
2022/04/11 10:04:50;;;;;;;7.15;4.68;;;307.60;1817.60;;;;;;4847416;29;20038;-77
2022/04/11 10:08:03;;;;;;;10.27;6.32;;;282.20;1843.20;;;;;;4847270;29;20498;-78
2022/04/11 10:17:50;;;;;;;10.93;4.68;;;307.80;1843.20;;;;;;4805067;29;20114;-79
2022/04/11 10:20:46;;;;;;;4.88;3.03;;;307.60;1843.20;;;;;;4791680;29;20067;-80
2022/04/11 10:23:23;;;;;;;8.50;5.47;;;307.30;1817.60;;;;;;4791182;29;20069;-78
2022/04/11 10:25:55;;;;;;;15.48;6.80;;;307.30;1843.20;;;;;;4806595;29;20035;-78
2022/04/11 10:28:23;;;;;;;11.77;6.53;;;307.50;1868.80;;;;;;4791527;29;20138;-79
2022/04/11 10:31:10;;;;;;;7.00;5.30;;;332.90;1817.60;;;;;;4791187;29;20031;-78
2022/04/11 10:33:49;;;;;;;7.35;6.20;;;333.10;1766.40;;;;;;4847094;29;20089;-78
2022/04/11 10:36:34;;;;;;;8.20;3.40;;;333.40;1715.20;;;;;;4863434;29;20117;-76
2022/04/11 10:39:26;;;;;;;7.78;4.80;;;333.60;1715.20;;;;;;4846494;29;20790;-79
2022/04/11 10:41:57;;;;;;;8.40;4.77;;;333.50;1689.60;;;;;;4830255;29;20077;-78
2022/04/11 10:44:40;;;;;;;6.53;2.50;;;333.30;1740.80;;;;;;4828264;29;20102;-77
2022/04/11 10:47:11;;;;;;;6.43;2.90;;;333.10;1766.40;;;;;;4828513;29;20500;-77
2022/04/11 10:49:53;;;;;;;7.35;3.42;;;308.10;1715.20;;;;;;4845078;29;20364;-81
2022/04/11 10:52:32;;;;;;;9.13;5.07;;;308.00;1740.80;;;;;;4828656;29;20029;-82
2022/04/11 10:55:05;;;;;;;8.18;4.35;;;333.10;1817.60;;;;;;4828774;29;20048;-82
2022/04/11 10:57:32;;;;;;;;;;;358.40;1715.20;;;;;;4845371;29;20041;-82
2022/04/11 11:00:09;;;;;;;5.18;2.70;;;359.00;1715.20;;;;;;4828725;29;19915;-78
2022/04/11 11:03:02;;;;;;;9.73;6.93;;;333.70;1664.00;;;;;;4828379;29;20038;-82
2022/04/11 11:05:31;;;;;;;;;;;358.60;1689.60;;;;;;4827561;29;20042;-78
2022/04/11 11:08:15;;;;;;;6.63;3.83;;;358.80;1664.00;;;;;;4848468;29;19921;-80
2022/04/11 11:10:45;;;;;;;6.90;4.25;;;333.70;1689.60;;;;;;4838695;29;20042;-78
2022/04/11 11:13:32;;;;;;;16.08;10.05;;;333.60;1715.20;;;;;;4828348;29;20022;-77
2022/04/11 11:15:57;;;;;;;13.45;6.20;;;359.10;1612.80;;;;;;4830380;29;20034;-77
2022/04/11 11:18:23;;;;;;;12.10;6.72;;;384.40;1587.20;;;;;;4830535;29;20057;-77
2022/04/11 11:20:56;;;;;;;16.20;10.27;;;384.00;1587.20;;;;;;4828467;29;20037;-75
2022/04/11 11:23:30;;;;;;;6.32;3.63;;;384.00;1612.80;;;;;;4827725;29;20049;-76
2022/04/11 11:26:07;;;;;;;26.10;17.15;;;358.50;1612.80;;;;;;4841747;29;20034;-75
2022/04/11 11:28:33;;;;;;;14.98;8.60;;;358.90;1612.80;;;;;;4836744;29;20085;-75
2022/04/11 11:30:59;;;;;;;9.57;4.95;;;358.80;1638.40;;;;;;4845787;29;20025;-77
2022/04/11 11:33:26;;;;;;;37.85;25.75;;;359.20;1561.60;;;;;;4845489;29;20033;-77
2022/04/11 11:35:54;;;;;;;10.48;5.70;;;359.00;1561.60;;;;;;4855263;29;20498;-77
2022/04/11 11:38:22;;;;;;;12.50;8.00;;;358.60;1612.80;;;;;;4843885;29;20454;-77
2022/04/11 11:41:00;;;;;;;12.27;7.43;;;358.40;1612.80;;;;;;4823932;29;20030;-75
2022/04/11 11:43:28;;;;;;;5.47;3.47;;;333.50;1638.40;;;;;;4843726;29;20038;-74
2022/04/11 11:46:01;;;;;;;7.32;4.75;;;333.20;1638.40;;;;;;4827570;29;20038;-78
2022/04/11 11:48:32;;;;;;;8.38;3.58;;;333.10;1689.60;;;;;;4843257;29;20510;-74
2022/04/11 11:50:59;;;;;;;12.38;8.95;;;333.00;1689.60;;;;;;4827643;29;20034;-78
2022/04/11 11:53:39;;;;;;;15.50;10.57;;;333.10;1664.00;;;;;;4827433;29;20065;-78
2022/04/11 11:56:08;;;;;;;13.80;9.48;;;333.30;1638.40;;;;;;4843747;29;20047;-78
2022/04/11 11:58:43;;;;;;;9.57;6.03;;;333.50;1715.20;;;;;;4842697;29;20480;-78
2022/04/11 12:01:13;;;;;;;12.10;6.38;;;333.30;1638.40;;;;;;4842780;29;20105;-77
2022/04/11 12:06:29;;;;;;;12.95;7.85;;;333.00;1664.00;;;;;;4843472;29;20060;-79
2022/04/11 12:08:59;;;;;;;7.63;4.60;;;332.90;1689.60;;;;;;4842582;29;20058;-79
2022/04/11 12:11:26;;;;;;;9.32;5.43;;;333.00;1689.60;;;;;;4826604;29;20064;-79
2022/04/11 12:14:03;;;;;;;9.63;6.00;;;333.10;1664.00;;;;;;4826883;29;20038;-78
2022/04/11 12:16:30;;;;;;;8.15;5.15;;;333.20;1689.60;;;;;;4826687;29;20034;-78
2022/04/11 12:18:58;;;;;;;8.23;3.92;;;358.70;1587.20;;;;;;4827128;29;20034;-79
2022/04/11 12:21:39;;;;;;;8.05;4.22;;;358.40;1612.80;;;;;;4827136;29;20034;-78
2022/04/11 12:24:08;;;;;;;11.15;6.75;;;333.70;1638.40;;;;;;4843499;29;20073;-78
2022/04/11 12:26:37;;;;;;;15.65;10.52;;;333.70;1612.80;;;;;;4843323;29;20037;-79
2022/04/11 12:29:13;;;;;;;9.98;5.85;;;333.30;1612.80;;;;;;4842801;29;20579;-78
2022/04/11 12:31:54;;;;;;;38.55;23.77;;;333.40;1664.00;;;;;;4843376;29;20037;-78
2022/04/11 12:34:19;;;;;;;30.90;20.25;;;333.40;1664.00;;;;;;4827119;29;20030;-79
2022/04/11 12:37:02;;;;;;;11.98;5.00;;;333.40;1715.20;;;;;;4826769;29;20049;-78
2022/04/11 12:39:29;;;;;;;20.40;14.63;;;333.20;1664.00;;;;;;4827201;29;20166;-78
2022/04/11 12:41:55;;;;;;;17.40;12.77;;;333.00;1638.40;;;;;;4826803;29;20037;-77
2022/04/11 12:44:35;;;;;;;24.27;21.65;;;333.00;1638.40;;;;;;4826486;29;20514;-78
2022/04/11 12:47:01;;;;;;;15.88;9.93;;;333.30;1638.40;;;;;;4826816;29;20034;-76
2022/04/11 12:49:50;;;;;;;7.45;4.72;;;358.50;1638.40;;;;;;4843274;29;20044;-77
2022/04/11 12:52:18;;;;;;;10.55;6.50;;;358.70;1638.40;;;;;;4842653;29;20467;-76
2022/04/11 12:54:45;;;;;;;12.10;7.05;;;359.10;1587.20;;;;;;4842981;29;20097;-77
2022/04/11 12:57:18;;;;;;;9.02;6.10;;;358.80;1612.80;;;;;;4826812;29;20033;-76
2022/04/11 12:59:44;;;;;;;11.98;6.50;;;358.50;1638.40;;;;;;4826951;29;20065;-77
2022/04/11 13:02:15;;;;;;;12.57;7.60;;;333.70;1638.40;;;;;;4843087;29;20034;-80
2022/04/11 13:04:43;;;;;;;11.93;7.70;;;333.60;1664.00;;;;;;4826355;29;20086;-79
2022/04/11 13:07:10;;;;;;;20.38;14.65;;;333.50;1664.00;;;;;;4826598;29;20137;-78
2022/04/11 13:09:38;;;;;;;19.83;13.85;;;358.40;1664.00;;;;;;4842913;29;20030;-77
2022/04/11 13:12:08;;;;;;;13.27;8.68;;;384.00;1587.20;;;;;;4826175;29;20034;-78
2022/04/11 13:14:36;;;;;;;8.32;4.85;;;384.90;1510.40;;;;;;4843046;29;20041;-76
2022/04/11 13:19:47;;;;;;;9.65;5.65;;;409.70;1484.80;;;;;;4842632;29;20037;-76
2022/04/11 13:22:14;;;;;;;12.10;8.68;;;384.40;1510.40;;;;;;4828014;29;20037;-77
2022/04/11 13:24:40;;;;;;;7.88;5.10;;;384.10;1536.00;;;;;;4843938;29;20073;-75
2022/04/11 13:27:06;;;;;;;17.27;7.43;;;384.10;1561.60;;;;;;4847960;29;20068;-76